createdAt,value
2023-04-18T00:00:10.293Z,8.66
2023-04-18T00:02:46.532Z,8.64
2023-04-18T00:05:18.155Z,8.62
2023-04-18T00:07:49.066Z,8.59
2023-04-18T00:10:19.969Z,8.56
2023-04-18T00:12:50.427Z,8.53
2023-04-18T00:15:20.900Z,8.49
2023-04-18T00:17:52.490Z,8.44
2023-04-18T00:20:46.013Z,8.39
2023-04-18T00:23:16.520Z,8.34
2023-04-18T00:25:47.150Z,8.29
2023-04-18T00:28:20.171Z,8.24
2023-04-18T00:30:52.480Z,8.19
2023-04-18T00:33:23.022Z,8.15
2023-04-18T00:35:56.246Z,8.13
2023-04-18T00:38:26.717Z,8.12
2023-04-18T00:41:17.762Z,8.10
2023-04-18T00:44:08.648Z,8.08
2023-04-18T00:46:41.546Z,8.09
2023-04-18T00:49:12.935Z,8.09
2023-04-18T00:51:54.510Z,8.07
2023-04-18T00:54:25.694Z,8.05
2023-04-18T00:56:56.326Z,8.02
2023-04-18T00:59:27.431Z,8.01
2023-04-18T01:01:58.125Z,7.98
2023-04-18T01:04:28.844Z,7.96
2023-04-18T01:06:59.631Z,7.94
2023-04-18T01:09:33.191Z,7.91
2023-04-18T01:12:06.527Z,7.89
2023-04-18T01:14:42.079Z,7.84
2023-04-18T01:17:16.281Z,7.79
2023-04-18T01:19:47.771Z,7.74
2023-04-18T01:22:20.653Z,7.70
2023-04-18T01:24:51.095Z,7.65
2023-04-18T01:27:24.240Z,7.58
2023-04-18T01:29:56.764Z,7.54
2023-04-18T01:32:27.172Z,7.49
2023-04-18T01:34:57.950Z,7.46
2023-04-18T01:37:28.507Z,7.44
2023-04-18T01:40:10.318Z,7.41
2023-04-18T01:42:53.058Z,7.38
2023-04-18T01:45:23.885Z,7.34
2023-04-18T01:47:54.463Z,7.31
2023-04-18T01:50:35.153Z,7.27
2023-04-18T01:53:05.766Z,7.24
2023-04-18T01:55:38.834Z,7.25
2023-04-18T01:58:10.050Z,7.23
2023-04-18T02:00:40.750Z,7.22
2023-04-18T02:03:11.368Z,7.20
2023-04-18T02:05:42.095Z,7.21
2023-04-18T02:08:15.108Z,7.20
2023-04-18T02:10:48.340Z,7.19
2023-04-18T02:13:21.367Z,7.17
2023-04-18T02:15:51.909Z,7.16
2023-04-18T02:18:24.894Z,7.14
2023-04-18T02:20:55.402Z,7.13
2023-04-18T02:23:35.965Z,7.10
2023-04-18T02:26:06.529Z,7.07
2023-04-18T02:28:40.257Z,7.04
2023-04-18T02:31:21.180Z,7.01
2023-04-18T02:33:53.927Z,6.98
2023-04-18T02:36:24.864Z,6.95
2023-04-18T02:38:56.162Z,6.92
2023-04-18T02:41:29.189Z,6.89
2023-04-18T02:44:00.132Z,6.86
2023-04-18T02:46:31.481Z,6.84
2023-04-18T02:49:02.143Z,6.83
2023-04-18T02:51:35.532Z,6.82
2023-04-18T02:54:08.961Z,6.83
2023-04-18T02:56:59.779Z,6.84
2023-04-18T02:59:50.372Z,6.84
2023-04-18T03:02:39.606Z,6.84
2023-04-18T03:05:23.224Z,6.84
2023-04-18T03:07:57.767Z,6.83
2023-04-18T03:10:48.935Z,6.81
2023-04-18T03:13:26.976Z,6.80
2023-04-18T03:16:02.387Z,6.80
2023-04-18T03:18:33.186Z,6.79
2023-04-18T03:21:03.884Z,6.78
2023-04-18T03:23:35.058Z,6.76
2023-04-18T03:26:05.174Z,6.75
2023-04-18T03:28:39.711Z,6.73
2023-04-18T03:31:10.534Z,6.71
2023-04-18T03:33:42.436Z,6.69
2023-04-18T03:36:17.700Z,6.67
2023-04-18T03:38:48.441Z,6.66
2023-04-18T03:41:19.109Z,6.63
2023-04-18T03:43:49.695Z,6.61
2023-04-18T03:46:22.034Z,6.60
2023-04-18T03:49:01.832Z,6.57
2023-04-18T03:51:42.560Z,6.56
2023-04-18T03:54:13.320Z,6.54
2023-04-18T03:56:59.495Z,6.53
2023-04-18T03:59:40.732Z,6.51
2023-04-18T04:02:10.160Z,6.49
2023-04-18T04:05:00.871Z,6.46
2023-04-18T04:07:31.537Z,6.45
2023-04-18T04:10:02.210Z,6.45
2023-04-18T04:12:37.635Z,6.43
2023-04-18T04:15:28.481Z,6.41
2023-04-18T04:18:04.615Z,6.40
2023-04-18T04:20:35.815Z,6.39
2023-04-18T04:23:12.596Z,6.39
2023-04-18T04:25:46.735Z,6.39
2023-04-18T04:28:37.317Z,6.36
2023-04-18T04:31:10.224Z,6.34
2023-04-18T04:34:01.759Z,6.33
2023-04-18T04:36:33.410Z,6.31
2023-04-18T04:39:08.665Z,6.28
2023-04-18T04:42:01.434Z,6.26
2023-04-18T04:44:35.592Z,6.25
2023-04-18T04:47:08.735Z,6.24
2023-04-18T04:49:59.334Z,6.25
2023-04-18T04:52:34.547Z,6.26
2023-04-18T04:55:07.246Z,6.29
2023-04-18T04:57:40.134Z,6.31
2023-04-18T05:00:24.377Z,6.34
2023-04-18T05:02:59.071Z,6.39
2023-04-18T05:05:33.634Z,6.42
2023-04-18T05:08:12.747Z,6.47
2023-04-18T05:10:49.804Z,6.53
2023-04-18T05:13:40.446Z,6.59
2023-04-18T05:16:31.633Z,6.66
2023-04-18T05:19:22.377Z,6.73
2023-04-18T05:21:53.117Z,6.80
2023-04-18T05:24:43.914Z,6.89
2023-04-18T05:27:35.456Z,6.98
2023-04-18T05:30:24.639Z,7.07
2023-04-18T05:33:00.970Z,7.13
2023-04-18T05:35:32.177Z,7.18
2023-04-18T05:38:05.002Z,7.22
2023-04-18T05:40:56.041Z,7.26
2023-04-18T05:43:37.694Z,7.29
2023-04-18T05:46:09.168Z,7.31
2023-04-18T05:48:38.212Z,7.33
2023-04-18T05:51:10.544Z,7.32
2023-04-18T05:53:42.155Z,7.32
2023-04-18T05:56:33.106Z,7.34
2023-04-18T05:59:23.834Z,7.37
2023-04-18T06:02:14.535Z,7.42
2023-04-18T06:04:57.580Z,7.44
2023-04-18T06:07:28.452Z,7.48
2023-04-18T06:09:59.064Z,7.52
2023-04-18T06:12:31.961Z,7.55
2023-04-18T06:15:02.493Z,7.57
2023-04-18T06:17:34.295Z,7.58
2023-04-18T06:20:25.227Z,7.61
2023-04-18T06:22:55.845Z,7.66
2023-04-18T06:25:46.882Z,7.71
2023-04-18T06:28:19.635Z,7.75
2023-04-18T06:30:52.600Z,7.78
2023-04-18T06:33:43.336Z,7.87
2023-04-18T06:36:16.158Z,7.94
2023-04-18T06:38:46.740Z,8.00
2023-04-18T06:41:28.430Z,8.08
2023-04-18T06:44:03.704Z,8.16
2023-04-18T06:46:35.041Z,8.19
2023-04-18T06:49:10.732Z,8.23
2023-04-18T06:51:41.460Z,8.30
2023-04-18T06:54:12.229Z,8.36
2023-04-18T06:57:03.830Z,8.44
2023-04-18T06:59:44.392Z,8.49
2023-04-18T07:02:28.247Z,8.56
2023-04-18T07:04:59.440Z,8.60
2023-04-18T07:07:30.328Z,8.63
2023-04-18T07:10:05.751Z,8.66
2023-04-18T07:12:40.921Z,8.73
2023-04-18T07:15:12.884Z,8.78
2023-04-18T07:17:43.435Z,8.86
2023-04-18T07:20:16.780Z,8.95
2023-04-18T07:23:06.613Z,9.02
2023-04-18T07:25:40.686Z,9.06
2023-04-18T07:28:14.278Z,9.11
2023-04-18T07:30:49.156Z,9.15
2023-04-18T07:33:22.509Z,9.14
2023-04-18T07:35:53.831Z,9.15
2023-04-18T07:38:46.388Z,9.19
2023-04-18T07:41:20.269Z,9.18
2023-04-18T07:44:04.166Z,9.22
2023-04-18T07:46:55.672Z,9.29
2023-04-18T07:49:26.581Z,9.31
2023-04-18T07:52:00.284Z,9.24
2023-04-18T07:54:31.048Z,9.21
2023-04-18T07:57:01.952Z,9.21
2023-04-18T07:59:32.930Z,9.26
2023-04-18T08:02:03.495Z,9.33
2023-04-18T08:04:37.091Z,9.42
2023-04-18T08:07:08.058Z,9.47
2023-04-18T08:09:38.950Z,9.48
2023-04-18T08:12:09.951Z,9.49
2023-04-18T08:14:41.382Z,9.51
2023-04-18T08:17:12.210Z,9.56
2023-04-18T08:19:44.585Z,9.65
2023-04-18T08:22:15.634Z,9.77
2023-04-18T08:25:01.140Z,9.84
2023-04-18T08:27:34.795Z,9.87
2023-04-18T08:30:07.191Z,9.87
2023-04-18T08:32:38.443Z,9.82
2023-04-18T08:35:17.908Z,9.76
2023-04-18T08:37:48.570Z,9.76
2023-04-18T08:40:19.935Z,9.76
2023-04-18T08:42:56.906Z,9.78
2023-04-18T08:45:31.287Z,9.87
2023-04-18T08:48:04.005Z,9.93
2023-04-18T08:50:37.528Z,10.02
2023-04-18T08:53:08.176Z,10.10
2023-04-18T08:55:54.031Z,10.25
2023-04-18T08:58:26.981Z,10.31
2023-04-18T09:00:57.641Z,10.39
2023-04-18T09:03:42.292Z,10.48
2023-04-18T09:06:19.422Z,10.60
2023-04-18T09:09:00.372Z,10.72
2023-04-18T09:11:34.364Z,10.85
2023-04-18T09:14:04.941Z,10.91
2023-04-18T09:16:48.075Z,10.95
2023-04-18T09:19:19.056Z,10.99
2023-04-18T09:22:00.818Z,11.02
2023-04-18T09:24:32.684Z,11.05
2023-04-18T09:27:04.062Z,11.17
2023-04-18T09:29:46.811Z,11.27
2023-04-18T09:32:26.843Z,11.34
2023-04-18T09:35:04.963Z,11.36
2023-04-18T09:37:36.207Z,11.39
2023-04-18T09:40:19.176Z,11.45
2023-04-18T09:42:51.578Z,11.51
2023-04-18T09:45:22.978Z,11.57
2023-04-18T09:47:52.397Z,11.67
2023-04-18T09:50:36.232Z,11.79
2023-04-18T09:53:09.128Z,11.91
2023-04-18T09:55:42.424Z,11.99
2023-04-18T09:58:14.261Z,12.11
2023-04-18T10:00:46.963Z,12.22
2023-04-18T10:03:20.988Z,12.38
2023-04-18T10:05:52.331Z,12.56
2023-04-18T10:08:22.745Z,12.70
2023-04-18T10:11:02.521Z,12.85
2023-04-18T10:13:35.581Z,12.93
2023-04-18T10:16:10.374Z,13.05
2023-04-18T10:18:41.088Z,13.20
2023-04-18T10:21:11.831Z,13.45
2023-04-18T10:23:42.617Z,13.79
2023-04-18T10:26:14.555Z,14.18
2023-04-18T10:28:56.890Z,14.42
2023-04-18T10:31:29.060Z,14.50
2023-04-18T10:36:34.472Z,14.75
2023-04-18T10:39:21.551Z,14.90
2023-04-18T10:41:52.661Z,15.30
2023-04-18T10:44:24.221Z,15.55
2023-04-18T10:47:33.004Z,15.81
2023-04-18T10:50:06.899Z,15.89
2023-04-18T10:52:37.509Z,15.94
2023-04-18T10:55:14.810Z,16.17
2023-04-18T10:57:46.824Z,16.53
2023-04-18T11:00:21.604Z,16.93
2023-04-18T11:02:56.018Z,17.17
2023-04-18T11:05:29.881Z,17.12
2023-04-18T11:08:00.226Z,16.87
2023-04-18T11:10:31.110Z,16.68
2023-04-18T11:13:04.677Z,16.45
2023-04-18T11:15:39.963Z,16.49
2023-04-18T11:18:11.776Z,16.61
2023-04-18T11:20:49.115Z,16.60
2023-04-18T11:23:22.897Z,16.89
2023-04-18T11:25:56.678Z,17.25
2023-04-18T11:28:28.659Z,17.38
2023-04-18T11:31:02.878Z,17.31
2023-04-18T11:33:33.410Z,17.22
2023-04-18T11:36:04.056Z,17.01
2023-04-18T11:38:34.589Z,16.75
2023-04-18T11:41:06.267Z,16.59
2023-04-18T11:43:36.797Z,16.63
2023-04-18T11:46:07.644Z,16.84
2023-04-18T11:48:39.076Z,16.87
2023-04-18T11:51:30.153Z,16.74
2023-04-18T11:54:00.508Z,16.78
2023-04-18T11:56:30.957Z,16.66
2023-04-18T11:59:09.080Z,16.58
2023-04-18T12:01:39.664Z,16.44
2023-04-18T12:04:11.070Z,16.27
2023-04-18T12:06:52.976Z,16.10
2023-04-18T12:09:26.250Z,15.98
2023-04-18T12:12:03.986Z,15.88
2023-04-18T12:14:36.613Z,15.74
2023-04-18T12:17:07.337Z,15.56
2023-04-18T12:19:38.270Z,15.42
2023-04-18T12:22:10.079Z,15.26
2023-04-18T12:24:41.797Z,15.20
2023-04-18T12:27:12.651Z,15.11
2023-04-18T12:29:43.119Z,15.05
2023-04-18T12:32:13.455Z,15.03
2023-04-18T12:34:46.176Z,15.01
2023-04-18T12:37:16.680Z,14.99
2023-04-18T12:39:47.092Z,15.07
2023-04-18T12:42:17.711Z,15.38
2023-04-18T12:44:48.133Z,15.59
2023-04-18T12:47:18.738Z,15.81
2023-04-18T12:49:49.180Z,16.14
2023-04-18T12:52:19.624Z,16.32
2023-04-18T12:54:50.180Z,16.47
2023-04-18T12:57:21.214Z,16.50
2023-04-18T12:59:51.594Z,16.52
2023-04-18T13:02:22.753Z,16.52
2023-04-18T13:04:53.702Z,16.50
2023-04-18T13:07:24.372Z,16.45
2023-04-18T13:09:54.917Z,16.36
2023-04-18T13:12:25.521Z,16.24
2023-04-18T13:14:56.272Z,16.15
2023-04-18T13:17:26.865Z,16.16
2023-04-18T13:19:57.504Z,16.12
2023-04-18T13:22:28.367Z,16.04
2023-04-18T13:24:58.800Z,15.98
2023-04-18T13:27:29.300Z,15.86
2023-04-18T13:29:59.870Z,15.87
2023-04-18T13:32:30.352Z,15.93
2023-04-18T13:35:03.162Z,15.97
2023-04-18T13:37:33.769Z,16.02
2023-04-18T13:40:05.580Z,16.02
2023-04-18T13:42:37.207Z,15.93
2023-04-18T13:45:08.982Z,15.78
2023-04-18T13:47:39.475Z,15.70
2023-04-18T13:50:12.116Z,15.66
2023-04-18T13:52:42.571Z,15.67
2023-04-18T13:55:13.323Z,15.64
2023-04-18T13:57:43.652Z,15.59
2023-04-18T14:00:16.815Z,15.55
2023-04-18T14:02:47.622Z,15.56
2023-04-18T14:05:18.631Z,15.60
2023-04-18T14:07:49.758Z,15.58
2023-04-18T14:10:18.858Z,15.52
2023-04-18T14:12:49.600Z,15.54
2023-04-18T14:15:21.664Z,15.71
2023-04-18T14:17:52.287Z,16.14
2023-04-18T14:20:23.312Z,16.46
2023-04-18T14:22:53.732Z,16.55
2023-04-18T14:25:24.439Z,16.62
2023-04-18T14:28:09.433Z,16.61
2023-04-18T14:30:41.290Z,16.62
2023-04-18T14:33:11.718Z,16.65
2023-04-18T14:35:43.666Z,16.70
2023-04-18T14:38:14.048Z,16.65
2023-04-18T14:40:45.026Z,16.61
2023-04-18T14:43:15.954Z,16.61
2023-04-18T14:45:46.589Z,16.84
2023-04-18T14:48:17.250Z,17.22
2023-04-18T14:50:48.023Z,17.53
2023-04-18T14:53:18.509Z,17.84
2023-04-18T14:55:48.808Z,18.34
2023-04-18T14:58:19.333Z,18.79
2023-04-18T15:00:50.056Z,19.24
2023-04-18T15:03:20.664Z,19.64
2023-04-18T15:05:53.172Z,20.02
2023-04-18T15:08:23.764Z,20.39
2023-04-18T15:10:54.352Z,20.45
2023-04-18T15:13:25.308Z,20.51
2023-04-18T15:15:55.358Z,20.50
2023-04-18T15:18:26.032Z,20.50
2023-04-18T15:20:57.096Z,20.66
2023-04-18T15:23:27.654Z,20.73
2023-04-18T15:25:59.113Z,20.88
2023-04-18T15:28:29.803Z,20.82
2023-04-18T15:31:00.298Z,20.51
2023-04-18T15:33:31.020Z,20.48
2023-04-18T15:36:01.347Z,20.52
2023-04-18T15:38:33.194Z,20.29
2023-04-18T15:41:03.774Z,19.78
2023-04-18T15:43:34.275Z,19.38
2023-04-18T15:46:04.856Z,19.01
2023-04-18T15:48:36.436Z,18.59
2023-04-18T15:51:07.807Z,18.18
2023-04-18T15:53:38.246Z,17.80
2023-04-18T15:56:09.161Z,17.51
2023-04-18T15:58:39.895Z,17.25
2023-04-18T16:01:13.271Z,17.06
2023-04-18T16:03:44.195Z,16.82
2023-04-18T16:06:16.672Z,16.58
2023-04-18T16:08:47.080Z,16.40
2023-04-18T16:11:18.242Z,16.21
2023-04-18T16:13:47.116Z,16.05
2023-04-18T16:16:17.807Z,15.89
2023-04-18T16:18:48.506Z,15.71
2023-04-18T16:21:21.652Z,15.51
2023-04-18T16:23:52.232Z,15.34
2023-04-18T16:26:24.872Z,15.23
2023-04-18T16:28:55.562Z,15.15
2023-04-18T16:31:26.384Z,15.07
2023-04-18T16:33:57.059Z,14.97
2023-04-18T16:36:27.640Z,14.86
2023-04-18T16:38:58.320Z,14.78
2023-04-18T16:41:28.807Z,14.72
2023-04-18T16:43:59.387Z,14.70
2023-04-18T16:46:32.146Z,14.66
2023-04-18T16:49:03.074Z,14.64
2023-04-18T16:51:36.255Z,14.60
2023-04-18T16:54:08.563Z,14.56
2023-04-18T16:56:39.234Z,14.52
2023-04-18T16:59:10.659Z,14.47
2023-04-18T17:01:41.235Z,14.43
2023-04-18T17:04:11.898Z,14.38
2023-04-18T17:06:43.787Z,14.30
2023-04-18T17:09:19.813Z,14.22
2023-04-18T17:11:50.736Z,14.12
2023-04-18T17:14:21.404Z,14.03
2023-04-18T17:16:53.780Z,13.95
2023-04-18T17:19:26.383Z,13.87
2023-04-18T17:21:57.076Z,13.79
2023-04-18T17:24:27.739Z,13.69
2023-04-18T17:26:59.270Z,13.63
2023-04-18T17:29:29.636Z,13.55
2023-04-18T17:32:00.233Z,13.49
2023-04-18T17:34:30.930Z,13.44
2023-04-18T17:37:01.678Z,13.37
2023-04-18T17:39:33.709Z,13.33
2023-04-18T17:42:07.687Z,13.29
2023-04-18T17:44:58.496Z,13.23
2023-04-18T17:47:29.319Z,13.17
2023-04-18T17:49:59.904Z,13.10
2023-04-18T17:52:31.202Z,13.03
2023-04-18T17:55:01.657Z,12.96
2023-04-18T17:57:33.692Z,12.86
2023-04-18T18:00:08.888Z,12.77
2023-04-18T18:02:43.367Z,12.67
2023-04-18T18:05:17.239Z,12.58
2023-04-18T18:07:49.639Z,12.48
2023-04-18T18:10:24.570Z,12.38
2023-04-18T18:12:58.054Z,12.30
2023-04-18T18:15:28.689Z,12.21
2023-04-18T18:18:10.849Z,12.12
2023-04-18T18:20:56.336Z,12.02
2023-04-18T18:23:38.038Z,11.93
2023-04-18T18:26:11.346Z,11.88
2023-04-18T18:28:51.362Z,11.83
2023-04-18T18:31:25.088Z,11.79
2023-04-18T18:33:59.249Z,11.75
2023-04-18T18:36:36.415Z,11.69
2023-04-18T18:39:14.627Z,11.67
2023-04-18T18:41:58.422Z,11.64
2023-04-18T18:44:29.039Z,11.61
2023-04-18T18:47:09.875Z,11.60
2023-04-18T18:49:40.833Z,11.59
2023-04-18T18:52:11.799Z,11.59
2023-04-18T18:54:42.618Z,11.57
2023-04-18T18:57:15.844Z,11.55
2023-04-18T18:59:46.338Z,11.53
2023-04-18T19:02:26.693Z,11.51
2023-04-18T19:05:17.833Z,11.49
2023-04-18T19:07:49.201Z,11.47
2023-04-18T19:10:28.769Z,11.47
2023-04-18T19:13:00.273Z,11.46
2023-04-18T19:15:33.716Z,11.45
2023-04-18T19:18:04.696Z,11.44
2023-04-18T19:20:35.619Z,11.42
2023-04-18T19:23:06.825Z,11.39
2023-04-18T19:25:37.914Z,11.36
2023-04-18T19:28:08.902Z,11.32
2023-04-18T19:30:41.880Z,11.32
2023-04-18T19:33:15.211Z,11.30
2023-04-18T19:35:46.011Z,11.28
2023-04-18T19:38:19.776Z,11.26
2023-04-18T19:40:50.748Z,11.23
2023-04-18T19:43:21.600Z,11.21
2023-04-18T19:45:55.010Z,11.19
2023-04-18T19:48:26.189Z,11.17
2023-04-18T19:50:58.351Z,11.16
2023-04-18T19:53:29.097Z,11.14
2023-04-18T19:56:01.924Z,11.12
2023-04-18T19:58:45.017Z,11.11
2023-04-18T20:01:26.047Z,11.08
2023-04-18T20:04:10.150Z,11.06
2023-04-18T20:06:39.647Z,11.04
2023-04-18T20:09:15.846Z,11.02
2023-04-18T20:11:48.485Z,10.99
2023-04-18T20:14:19.275Z,10.98
2023-04-18T20:16:50.270Z,10.95
2023-04-18T20:19:25.587Z,10.93
2023-04-18T20:21:56.308Z,10.91
2023-04-18T20:24:39.417Z,10.87
2023-04-18T20:27:13.658Z,10.86
2023-04-18T20:29:45.239Z,10.84
2023-04-18T20:32:16.128Z,10.80
2023-04-18T20:34:46.950Z,10.77
2023-04-18T20:37:19.919Z,10.74
2023-04-18T20:39:50.642Z,10.71
2023-04-18T20:42:21.238Z,10.69
2023-04-18T20:44:54.809Z,10.67
2023-04-18T20:47:28.617Z,10.64
2023-04-18T20:50:01.468Z,10.64
2023-04-18T20:52:34.502Z,10.63
2023-04-18T20:55:09.660Z,10.62
2023-04-18T20:57:40.261Z,10.62
2023-04-18T21:00:14.267Z,10.61
2023-04-18T21:02:45.292Z,10.59
2023-04-18T21:05:27.340Z,10.57
2023-04-18T21:08:00.265Z,10.55
2023-04-18T21:10:30.915Z,10.55
2023-04-18T21:13:04.613Z,10.53
2023-04-18T21:15:46.911Z,10.48
2023-04-18T21:18:19.758Z,10.50
2023-04-18T21:21:10.529Z,10.49
2023-04-18T21:23:47.020Z,10.48
2023-04-18T21:26:29.025Z,10.47
2023-04-18T21:29:04.708Z,10.45
2023-04-18T21:31:36.477Z,10.44
2023-04-18T21:34:07.230Z,10.44
2023-04-18T21:36:46.804Z,10.43
2023-04-18T21:39:17.486Z,10.44
2023-04-18T21:41:48.100Z,10.42
2023-04-18T21:44:19.167Z,10.39
2023-04-18T21:46:52.038Z,10.35
2023-04-18T21:49:25.750Z,10.34
2023-04-18T21:51:56.598Z,10.31
2023-04-18T21:54:27.994Z,10.28
2023-04-18T21:57:12.743Z,10.24
2023-04-18T21:59:43.508Z,10.21
2023-04-18T22:02:14.296Z,10.15
2023-04-18T22:04:45.075Z,10.10
2023-04-18T22:07:25.435Z,10.05
2023-04-18T22:09:58.854Z,9.99
2023-04-18T22:12:32.173Z,9.91
2023-04-18T22:15:06.483Z,9.84
2023-04-18T22:17:43.132Z,9.79
2023-04-18T22:20:17.401Z,9.72
2023-04-18T22:22:50.941Z,9.67
2023-04-18T22:25:32.786Z,9.61
2023-04-18T22:28:13.514Z,9.55
2023-04-18T22:30:43.974Z,9.49
2023-04-18T22:33:17.013Z,9.45
2023-04-18T22:35:52.018Z,9.43
2023-04-18T22:38:36.571Z,9.41
2023-04-18T22:41:18.289Z,9.41
2023-04-18T22:43:48.875Z,9.42
2023-04-18T22:46:21.850Z,9.44
2023-04-18T22:48:55.602Z,9.46
2023-04-18T22:51:47.449Z,9.49
2023-04-18T22:54:41.234Z,9.50
2023-04-18T22:57:18.993Z,9.51
2023-04-18T22:59:49.477Z,9.51
2023-04-18T23:02:22.645Z,9.51
2023-04-18T23:05:15.606Z,9.52
2023-04-18T23:07:48.770Z,9.52
2023-04-18T23:10:19.444Z,9.53
2023-04-18T23:12:52.428Z,9.53
2023-04-18T23:15:27.069Z,9.53
2023-04-18T23:18:00.237Z,9.54
2023-04-18T23:20:33.851Z,9.54
2023-04-18T23:23:13.990Z,9.54
2023-04-18T23:25:49.604Z,9.54
2023-04-18T23:28:23.122Z,9.53
2023-04-18T23:30:53.895Z,9.52
2023-04-18T23:33:44.289Z,9.50
2023-04-18T23:36:14.804Z,9.48
2023-04-18T23:38:48.399Z,9.48
2023-04-18T23:41:21.160Z,9.47
2023-04-18T23:43:57.092Z,9.46
2023-04-18T23:46:36.942Z,9.45
2023-04-18T23:49:07.466Z,9.44
2023-04-18T23:51:55.109Z,9.43
2023-04-18T23:54:24.051Z,9.43
2023-04-18T23:57:06.100Z,9.43
2023-04-18T23:59:41.219Z,9.41
